Flight Track Log - Related Links

Times and Time Zones

All times are in EDT time to prevent confusion due to time zone crossing. See the DLH2745 flight status page for this flight to view local times or setup timezone preferences in your user account.

Time Position Orientation Groundspeed Altitude Reporting Facility
EDT Latitude Longitude Course Direction KTS MPH feet Rate Location/Type
Wed 02:38:00 PM 52.4879 12.8509 255° West  Level Estimated
Wed 02:39:00 PM 52.4636 12.7056 255° West  Level Estimated
Wed 02:40:00 PM 52.4391 12.5604 255° West  Level Estimated
Wed 02:41:00 PM 52.4145 12.4154 254° West  Level Estimated
Wed 02:42:00 PM 52.3896 12.2706 254° West  Level Estimated
Wed 02:43:00 PM 52.3647 12.1260 254° West  Level Estimated
Wed 02:44:00 PM 52.3395 11.9815 254° West  Level Estimated
Wed 02:45:00 PM 52.3141 11.8371 254° West  Level Estimated
Wed 02:46:00 PM 52.2886 11.6930 254° West  Level Estimated
Wed 02:47:00 PM 52.2629 11.5490 254° West  Level Estimated
Wed 02:48:00 PM 52.2370 11.4052 254° West  Level Estimated
Wed 02:49:00 PM 52.2110 11.2615 254° West  Level Estimated
Wed 02:50:00 PM 52.1847 11.1180 253° West  Level Estimated
Wed 02:51:00 PM 52.1583 10.9747 253° West  Level Estimated
Wed 02:52:00 PM 52.1318 10.8316 253° West  Level Estimated
Wed 02:53:00 PM 52.1050 10.6886 253° West  Level Estimated
Wed 02:54:00 PM 52.0781 10.5458 253° West  Level Estimated
Wed 02:55:00 PM 52.0510 10.4032 253° West  Level Estimated
Wed 02:56:00 PM 52.0237 10.2607 253° West  Level Estimated
Wed 02:57:00 PM 51.9963 10.1184 253° West  Level Estimated
Wed 02:58:00 PM 51.9687 9.9763 253° West  Level Estimated
Wed 02:59:00 PM 51.9409 9.8344 252° West  Level Estimated
Wed 03:00:00 PM 51.9130 9.6926 252° West  Level Estimated
Wed 03:01:00 PM 51.8848 9.5511 252° West  Level Estimated
Wed 03:02:00 PM 51.8565 9.4096 252° West  Level Estimated
Wed 03:03:00 PM 51.8281 9.2684 252° West  Level Estimated
Wed 03:04:00 PM 51.7995 9.1274 252° West  Level Estimated
Wed 03:05:00 PM 51.7707 8.9865 252° West  Level Estimated
Wed 03:06:00 PM 51.7417 8.8458 252° West  Level Estimated
Wed 03:07:00 PM 51.7126 8.7053 252° West  Level Estimated
Wed 03:08:00 PM 51.6833 8.5650 251° West  Level Estimated
Wed 03:09:00 PM 51.6538 8.4249 251° West  Level Estimated
Wed 03:10:00 PM 51.6242 8.2849 251° West  Level Estimated
Wed 03:11:00 PM 51.5944 8.1452 251° West  Level Estimated
Wed 03:12:00 PM 51.5571 7.9716 251° West  Level Estimated
Wed 03:13:00 PM 51.5196 7.7984 251° West  Level Estimated
Wed 03:14:00 PM 51.4818 7.6255 251° West  Level Estimated
Wed 03:15:00 PM 51.4437 7.4528 251° West  Level Estimated
Wed 03:16:00 PM 51.4055 7.2804 250° West  Level Estimated
Wed 03:17:00 PM 51.3669 7.1083 250° West  Level Estimated
Wed 03:18:00 PM 51.3281 6.9366 250° West  Level Estimated
Wed 03:19:00 PM 51.2895 6.7668 250° West  Level Estimated
Wed 03:20:00 PM 51.2895 6.7668 314° West  Level Estimated
Wed 03:21:00 PM 51.2895 6.7668 46° Northeast  Level Estimated
Wed 03:22:00 PM 51.2895 6.7668 314° West  Level Estimated
Wed 03:23:00 PM 51.2895 6.7668 46° Northeast  Level Estimated
Wed 03:24:00 PM 51.2895 6.7668 314° West  Level Estimated
Wed 03:25:00 PM 51.2895 6.7668 46° Northeast  Level Estimated
Wed 03:26:00 PM 51.2895 6.7668 314° West  Level Estimated
Wed 03:27:00 PM 51.2895 6.7668 46° Northeast  Level Estimated
Wed 03:28:00 PM 51.2895 6.7668 314° West  Level Estimated

Login

Don't have an account? Register now (free) for customized features, flight alerts, and more!